createdAt,value
2024-03-02T00:00:52.930Z,100.00
2024-03-02T00:03:20.475Z,100.00
2024-03-02T00:05:53.077Z,100.00
2024-03-02T00:08:30.451Z,100.00
2024-03-02T00:11:02.113Z,100.00
2024-03-02T00:13:31.045Z,100.00
2024-03-02T00:15:58.345Z,100.00
2024-03-02T00:18:36.602Z,100.00
2024-03-02T00:21:04.660Z,100.00
2024-03-02T00:23:32.601Z,100.00
2024-03-02T00:26:01.322Z,100.00
2024-03-02T00:28:35.899Z,100.00
2024-03-02T00:31:12.606Z,100.00
2024-03-02T00:33:43.814Z,100.00
2024-03-02T00:36:12.049Z,100.00
2024-03-02T00:38:48.925Z,100.00
2024-03-02T00:41:24.265Z,100.00
2024-03-02T00:44:02.008Z,100.00
2024-03-02T00:46:32.374Z,100.00
2024-03-02T00:49:01.413Z,100.00
2024-03-02T00:51:31.466Z,100.00
2024-03-02T00:54:05.589Z,100.00
2024-03-02T00:56:33.968Z,100.00
2024-03-02T00:59:00.645Z,100.00
2024-03-02T01:01:27.321Z,100.00
2024-03-02T01:03:54.352Z,100.00
2024-03-02T01:06:21.263Z,100.00
2024-03-02T01:08:52.191Z,100.00
2024-03-02T01:11:19.526Z,100.00
2024-03-02T01:13:47.505Z,100.00
2024-03-02T01:16:14.646Z,100.00
2024-03-02T01:18:41.453Z,100.00
2024-03-02T01:21:08.449Z,100.00
2024-03-02T01:23:35.032Z,100.00
2024-03-02T01:26:01.672Z,100.00
2024-03-02T01:28:28.921Z,100.00
2024-03-02T01:30:55.687Z,100.00
2024-03-02T01:33:22.569Z,100.00
2024-03-02T01:35:49.183Z,100.00
2024-03-02T01:38:15.833Z,100.00
2024-03-02T01:40:43.401Z,100.00
2024-03-02T01:43:10.032Z,100.00
2024-03-02T01:45:38.313Z,100.00
2024-03-02T01:48:07.976Z,100.00
2024-03-02T01:50:35.585Z,100.00
2024-03-02T01:53:04.241Z,100.00
2024-03-02T01:55:31.856Z,100.00
2024-03-02T01:57:59.393Z,100.00
2024-03-02T02:00:28.049Z,100.00
2024-03-02T02:02:56.209Z,100.00
2024-03-02T02:05:23.320Z,100.00
2024-03-02T02:07:50.422Z,100.00
2024-03-02T02:10:17.281Z,100.00
2024-03-02T02:12:43.964Z,100.00
2024-03-02T02:15:28.564Z,100.00
2024-03-02T02:17:56.702Z,100.00
2024-03-02T02:20:24.578Z,100.00
2024-03-02T02:23:03.446Z,100.00
2024-03-02T02:25:31.031Z,100.00
2024-03-02T02:27:59.292Z,100.00
2024-03-02T02:30:31.346Z,100.00
2024-03-02T02:32:59.349Z,100.00
2024-03-02T02:35:26.371Z,100.00
2024-03-02T02:37:54.010Z,100.00
2024-03-02T02:40:20.835Z,100.00
2024-03-02T02:42:48.362Z,100.00
2024-03-02T02:45:16.396Z,100.00
2024-03-02T02:47:43.907Z,100.00
2024-03-02T02:50:12.340Z,100.00
2024-03-02T02:52:41.654Z,100.00
2024-03-02T02:55:10.522Z,100.00
2024-03-02T02:57:39.150Z,100.00
2024-03-02T03:00:24.247Z,100.00
2024-03-02T03:02:51.739Z,100.00
2024-03-02T03:05:19.380Z,100.00
2024-03-02T03:07:46.475Z,100.00
2024-03-02T03:10:14.730Z,100.00
2024-03-02T03:12:43.200Z,100.00
2024-03-02T03:15:11.117Z,100.00
2024-03-02T03:17:38.884Z,100.00
2024-03-02T03:20:07.081Z,100.00
2024-03-02T03:22:33.976Z,100.00
2024-03-02T03:25:01.012Z,100.00
2024-03-02T03:27:27.874Z,100.00
2024-03-02T03:29:55.525Z,100.00
2024-03-02T03:32:22.886Z,100.00
2024-03-02T03:34:49.869Z,100.00
2024-03-02T03:37:16.702Z,100.00
2024-03-02T03:39:43.456Z,100.00
2024-03-02T03:42:10.175Z,100.00
2024-03-02T03:44:36.862Z,100.00
2024-03-02T03:47:03.972Z,100.00
2024-03-02T03:49:30.677Z,100.00
2024-03-02T03:51:57.389Z,100.00
2024-03-02T03:54:24.105Z,100.00
2024-03-02T03:56:50.753Z,100.00
2024-03-02T03:59:17.540Z,100.00
2024-03-02T04:01:44.253Z,100.00
2024-03-02T04:04:11.047Z,100.00
2024-03-02T04:06:37.804Z,100.00
2024-03-02T04:09:05.186Z,100.00
2024-03-02T04:11:32.272Z,100.00
2024-03-02T04:13:59.195Z,100.00
2024-03-02T04:16:25.986Z,100.00
2024-03-02T04:18:52.893Z,100.00
2024-03-02T04:21:19.524Z,100.00
2024-03-02T04:23:46.182Z,100.00
2024-03-02T04:26:12.844Z,100.00
2024-03-02T04:28:39.455Z,100.00
2024-03-02T04:31:06.160Z,100.00
2024-03-02T04:33:32.998Z,100.00
2024-03-02T04:35:59.573Z,100.00
2024-03-02T04:38:26.162Z,100.00
2024-03-02T04:40:52.780Z,100.00
2024-03-02T04:43:20.406Z,100.00
2024-03-02T04:45:47.191Z,100.00
2024-03-02T04:48:15.147Z,100.00
2024-03-02T04:50:42.057Z,100.00
2024-03-02T04:53:09.115Z,100.00
2024-03-02T04:55:35.858Z,100.00
2024-03-02T04:58:02.603Z,100.00
2024-03-02T05:00:29.395Z,100.00
2024-03-02T05:02:56.104Z,100.00
2024-03-02T05:05:22.733Z,100.00
2024-03-02T05:07:49.447Z,100.00
2024-03-02T05:10:16.683Z,100.00
2024-03-02T05:12:43.510Z,100.00
2024-03-02T05:15:14.515Z,100.00
2024-03-02T05:17:44.340Z,100.00
2024-03-02T05:20:12.046Z,100.00
2024-03-02T05:22:38.986Z,100.00
2024-03-02T05:25:06.517Z,100.00
2024-03-02T05:27:34.226Z,100.00
2024-03-02T05:30:01.461Z,100.00
2024-03-02T05:32:28.508Z,100.00
2024-03-02T05:34:56.200Z,100.00
2024-03-02T05:37:22.987Z,100.00
2024-03-02T05:39:49.771Z,100.00
2024-03-02T05:42:18.170Z,100.00
2024-03-02T05:44:44.847Z,100.00
2024-03-02T05:47:11.491Z,100.00
2024-03-02T05:49:38.166Z,100.00
2024-03-02T05:52:04.934Z,100.00
2024-03-02T05:54:31.568Z,100.00
2024-03-02T05:56:58.226Z,100.00
2024-03-02T05:59:24.825Z,100.00
2024-03-02T06:01:54.477Z,100.00
2024-03-02T06:04:21.178Z,100.00
2024-03-02T06:06:47.850Z,100.00
2024-03-02T06:09:14.647Z,100.00
2024-03-02T06:11:42.554Z,100.00
2024-03-02T06:14:10.311Z,100.00
2024-03-02T06:16:36.993Z,100.00
2024-03-02T06:19:04.087Z,100.00
2024-03-02T06:21:31.131Z,100.00
2024-03-02T06:23:58.190Z,100.00
2024-03-02T06:26:26.147Z,100.00
2024-03-02T06:28:53.532Z,100.00
2024-03-02T06:31:20.377Z,100.00
2024-03-02T06:33:47.251Z,100.00
2024-03-02T06:36:14.052Z,100.00
2024-03-02T06:38:43.908Z,100.00
2024-03-02T06:41:10.841Z,100.00
2024-03-02T06:43:37.599Z,100.00
2024-03-02T06:46:04.590Z,100.00
2024-03-02T06:48:31.682Z,100.00
2024-03-02T06:50:59.579Z,100.00
2024-03-02T06:53:26.702Z,100.00
2024-03-02T06:55:53.502Z,100.00
2024-03-02T06:58:20.184Z,100.00
2024-03-02T07:00:46.845Z,100.00
2024-03-02T07:03:13.840Z,100.00
2024-03-02T07:05:40.717Z,100.00
2024-03-02T07:08:07.579Z,100.00
2024-03-02T07:10:34.213Z,100.00
2024-03-02T07:13:01.259Z,100.00
2024-03-02T07:15:28.400Z,100.00
2024-03-02T07:17:55.344Z,100.00
2024-03-02T07:20:21.888Z,100.00
2024-03-02T07:22:48.628Z,100.00
2024-03-02T07:27:45.325Z,100.00
2024-03-02T07:30:15.510Z,100.00
2024-03-02T07:32:43.396Z,100.00
2024-03-02T07:35:10.061Z,100.00
2024-03-02T07:37:36.807Z,100.00
2024-03-02T07:40:04.201Z,100.00
2024-03-02T07:42:31.066Z,100.00
2024-03-02T07:44:57.729Z,100.00
2024-03-02T07:47:24.623Z,100.00
2024-03-02T07:49:51.174Z,100.00
2024-03-02T07:52:17.784Z,100.00
2024-03-02T07:54:44.882Z,100.00
2024-03-02T07:57:11.887Z,100.00
2024-03-02T07:59:39.630Z,100.00
2024-03-02T08:02:06.643Z,100.00
2024-03-02T08:04:33.266Z,100.00
2024-03-02T08:07:00.183Z,100.00
2024-03-02T08:09:27.106Z,100.00
2024-03-02T08:11:53.766Z,99.85
2024-03-02T08:14:20.562Z,98.02
2024-03-02T08:16:47.141Z,97.34
2024-03-02T08:19:14.022Z,97.90
2024-03-02T08:21:40.738Z,94.93
2024-03-02T08:24:08.038Z,93.17
2024-03-02T08:26:35.248Z,95.65
2024-03-02T08:29:04.981Z,97.53
2024-03-02T08:31:31.916Z,99.14
2024-03-02T08:33:58.720Z,99.68
2024-03-02T08:36:25.585Z,96.47
2024-03-02T08:38:52.641Z,95.27
2024-03-02T08:41:19.586Z,97.46
2024-03-02T08:43:46.282Z,100.00
2024-03-02T08:46:12.996Z,95.95
2024-03-02T08:48:39.609Z,94.21
2024-03-02T08:51:08.855Z,88.06
2024-03-02T08:53:35.589Z,86.73
2024-03-02T08:56:03.347Z,84.97
2024-03-02T08:58:30.459Z,86.78
2024-03-02T09:00:57.192Z,87.96
2024-03-02T09:03:23.807Z,90.74
2024-03-02T09:05:50.455Z,85.21
2024-03-02T09:08:17.121Z,85.45
2024-03-02T09:10:44.904Z,82.82
2024-03-02T09:13:11.721Z,83.41
2024-03-02T09:15:40.945Z,84.22
2024-03-02T09:18:08.050Z,86.76
2024-03-02T09:20:35.115Z,86.59
2024-03-02T09:23:01.817Z,87.81
2024-03-02T09:25:28.679Z,81.20
2024-03-02T09:27:55.596Z,84.39
2024-03-02T09:30:22.311Z,83.26
2024-03-02T09:32:50.577Z,83.15
2024-03-02T09:35:17.517Z,81.23
2024-03-02T09:37:44.065Z,82.49
2024-03-02T09:40:11.424Z,83.89
2024-03-02T09:42:38.516Z,85.56
2024-03-02T09:45:06.240Z,88.74
2024-03-02T09:47:33.028Z,86.45
2024-03-02T09:50:00.489Z,89.26
2024-03-02T09:52:27.508Z,83.44
2024-03-02T09:54:54.331Z,87.97
2024-03-02T09:57:21.049Z,85.97
2024-03-02T09:59:47.607Z,84.60
2024-03-02T10:02:14.201Z,86.34
2024-03-02T10:04:40.888Z,84.68
2024-03-02T10:07:12.860Z,85.39
2024-03-02T10:09:40.117Z,88.91
2024-03-02T10:12:08.743Z,92.72
2024-03-02T10:14:35.982Z,88.45
2024-03-02T10:17:04.766Z,89.20
2024-03-02T10:19:36.063Z,88.88
2024-03-02T10:22:04.932Z,86.70
2024-03-02T10:24:38.918Z,85.09
2024-03-02T10:27:23.945Z,85.47
2024-03-02T10:29:50.980Z,85.01
2024-03-02T10:32:18.034Z,87.16
2024-03-02T10:34:50.779Z,81.79
2024-03-02T10:37:18.801Z,82.16
2024-03-02T10:39:47.635Z,84.67
2024-03-02T10:42:15.837Z,78.13
2024-03-02T10:44:44.003Z,78.36
2024-03-02T10:47:13.736Z,77.71
2024-03-02T10:49:44.928Z,74.92
2024-03-02T10:52:11.733Z,79.50
2024-03-02T10:54:40.874Z,80.59
2024-03-02T10:57:10.914Z,82.87
2024-03-02T10:59:46.059Z,77.28
2024-03-02T11:02:14.946Z,80.36
2024-03-02T11:04:43.208Z,78.34
2024-03-02T11:07:12.192Z,76.22
2024-03-02T11:10:01.001Z,75.71
2024-03-02T11:12:33.042Z,79.25
2024-03-02T11:15:01.444Z,74.23
2024-03-02T11:17:29.292Z,77.97
2024-03-02T11:19:56.445Z,78.18
2024-03-02T11:22:23.260Z,74.96
2024-03-02T11:24:51.260Z,77.25
2024-03-02T11:27:47.251Z,74.33
2024-03-02T11:30:32.821Z,70.13
2024-03-02T11:33:11.912Z,71.44
2024-03-02T11:35:50.229Z,69.84
2024-03-02T11:38:17.050Z,75.83
2024-03-02T11:40:44.128Z,72.64
2024-03-02T11:43:12.440Z,76.38
2024-03-02T11:45:42.528Z,73.80
2024-03-02T11:48:13.927Z,71.57
2024-03-02T11:50:50.061Z,67.67
2024-03-02T11:53:18.197Z,69.36
2024-03-02T11:55:48.123Z,67.57
2024-03-02T11:58:15.886Z,68.82
2024-03-02T12:00:42.697Z,67.87
2024-03-02T12:03:13.508Z,69.49
2024-03-02T12:05:40.578Z,69.95
2024-03-02T12:08:08.298Z,68.41
2024-03-02T12:10:37.397Z,69.46
2024-03-02T12:13:07.762Z,68.86
2024-03-02T12:15:38.008Z,69.45
2024-03-02T12:18:06.178Z,72.32
2024-03-02T12:20:34.215Z,69.42
2024-03-02T12:23:03.608Z,71.85
2024-03-02T12:25:32.875Z,70.06
2024-03-02T12:28:02.168Z,70.42
2024-03-02T12:30:31.682Z,69.05
2024-03-02T12:32:59.200Z,69.67
2024-03-02T12:35:26.715Z,67.24
2024-03-02T12:37:54.982Z,65.97
2024-03-02T12:40:24.067Z,65.48
2024-03-02T12:42:52.482Z,66.57
2024-03-02T12:45:26.162Z,65.02
2024-03-02T12:47:53.700Z,66.03
2024-03-02T12:50:21.434Z,66.41
2024-03-02T12:52:54.696Z,69.22
2024-03-02T12:55:26.028Z,70.69
2024-03-02T12:57:53.862Z,70.00
2024-03-02T13:00:23.744Z,70.12
2024-03-02T13:02:53.009Z,68.19
2024-03-02T13:05:21.249Z,69.24
2024-03-02T13:07:49.630Z,67.49
2024-03-02T13:10:17.009Z,69.00
2024-03-02T13:12:43.824Z,70.81
2024-03-02T13:15:14.277Z,66.73
2024-03-02T13:17:42.964Z,67.75
2024-03-02T13:20:11.959Z,69.19
2024-03-02T13:22:39.173Z,69.71
2024-03-02T13:25:07.363Z,71.02
2024-03-02T13:27:34.671Z,70.45
2024-03-02T13:30:02.565Z,69.94
2024-03-02T13:32:29.225Z,69.73
2024-03-02T13:34:55.792Z,67.74
2024-03-02T13:37:22.860Z,71.06
2024-03-02T13:39:50.086Z,68.54
2024-03-02T13:42:17.495Z,70.16
2024-03-02T13:44:49.424Z,68.51
2024-03-02T13:47:16.834Z,67.80
2024-03-02T13:49:48.299Z,68.33
2024-03-02T13:52:16.264Z,67.40
2024-03-02T13:54:46.597Z,70.70
2024-03-02T13:57:13.831Z,70.98
2024-03-02T13:59:42.159Z,72.74
2024-03-02T14:02:09.904Z,70.98
2024-03-02T14:04:37.244Z,73.15
2024-03-02T14:07:04.477Z,74.65
2024-03-02T14:09:31.420Z,74.35
2024-03-02T14:11:58.862Z,75.11
2024-03-02T14:14:25.796Z,75.54
2024-03-02T14:16:52.963Z,75.18
2024-03-02T14:19:19.694Z,75.76
2024-03-02T14:21:46.923Z,77.98
2024-03-02T14:24:13.690Z,78.03
2024-03-02T14:26:40.348Z,76.53
2024-03-02T14:29:07.006Z,76.46
2024-03-02T14:31:33.822Z,76.40
2024-03-02T14:34:01.528Z,76.67
2024-03-02T14:36:29.445Z,77.32
2024-03-02T14:38:56.918Z,76.41
2024-03-02T14:41:25.584Z,75.54
2024-03-02T14:43:53.208Z,76.42
2024-03-02T14:46:20.497Z,76.63
2024-03-02T14:48:47.761Z,76.00
2024-03-02T14:51:15.232Z,75.60
2024-03-02T14:53:42.756Z,76.33
2024-03-02T14:56:09.784Z,74.64
2024-03-02T14:58:39.412Z,73.45
2024-03-02T15:01:10.216Z,73.71
2024-03-02T15:03:37.175Z,72.12
2024-03-02T15:06:05.401Z,71.37
2024-03-02T15:08:32.360Z,73.35
2024-03-02T15:11:00.772Z,72.50
2024-03-02T15:13:27.725Z,73.86
2024-03-02T15:15:54.611Z,73.96
2024-03-02T15:18:21.405Z,73.60
2024-03-02T15:20:48.137Z,72.86
2024-03-02T15:23:14.832Z,72.12
2024-03-02T15:25:42.179Z,72.80
2024-03-02T15:28:09.378Z,72.53
2024-03-02T15:30:36.222Z,72.99
2024-03-02T15:33:03.130Z,73.56
2024-03-02T15:35:29.843Z,73.84
2024-03-02T15:37:56.440Z,74.44
2024-03-02T15:40:23.233Z,73.30
2024-03-02T15:42:49.936Z,73.15
2024-03-02T15:45:16.579Z,73.37
2024-03-02T15:47:43.417Z,73.91
2024-03-02T15:50:10.586Z,72.49
2024-03-02T15:52:37.558Z,72.36
2024-03-02T15:55:06.925Z,71.48
2024-03-02T15:57:34.165Z,71.68
2024-03-02T16:00:00.835Z,72.40
2024-03-02T16:02:27.386Z,72.37
2024-03-02T16:04:54.046Z,72.61
2024-03-02T16:07:21.442Z,72.62
2024-03-02T16:09:48.129Z,72.22
2024-03-02T16:12:14.788Z,72.53
2024-03-02T16:14:41.771Z,72.97
2024-03-02T16:17:10.289Z,72.85
2024-03-02T16:19:40.744Z,73.78
2024-03-02T16:22:09.632Z,72.26
2024-03-02T16:24:36.482Z,72.95
2024-03-02T16:27:03.417Z,72.42
2024-03-02T16:29:30.026Z,72.95
2024-03-02T16:31:56.605Z,72.25
2024-03-02T16:34:23.474Z,73.17
2024-03-02T16:36:50.274Z,73.36
2024-03-02T16:39:17.237Z,72.95
2024-03-02T16:41:48.109Z,74.35
2024-03-02T16:44:15.139Z,72.96
2024-03-02T16:46:41.958Z,74.27
2024-03-02T16:49:11.562Z,73.87
2024-03-02T16:51:44.866Z,73.33
2024-03-02T16:54:11.643Z,74.30
2024-03-02T16:56:41.939Z,73.80
2024-03-02T16:59:08.878Z,74.37
2024-03-02T17:01:35.863Z,74.82
2024-03-02T17:04:05.329Z,75.48
2024-03-02T17:06:32.360Z,75.48
2024-03-02T17:08:58.996Z,74.48
2024-03-02T17:11:29.327Z,75.76
2024-03-02T17:13:58.959Z,75.86
2024-03-02T17:16:26.316Z,75.83
2024-03-02T17:18:53.723Z,75.87
2024-03-02T17:21:21.103Z,76.78
2024-03-02T17:23:48.232Z,78.01
2024-03-02T17:26:15.049Z,77.93
2024-03-02T17:28:43.097Z,77.68
2024-03-02T17:31:10.426Z,77.77
2024-03-02T17:33:37.555Z,76.72
2024-03-02T17:36:05.294Z,76.53
2024-03-02T17:38:32.709Z,77.39
2024-03-02T17:41:01.858Z,76.77
2024-03-02T17:43:28.548Z,77.17
2024-03-02T17:45:55.403Z,77.66
2024-03-02T17:48:23.200Z,77.37
2024-03-02T17:50:51.126Z,78.21
2024-03-02T17:53:17.970Z,78.82
2024-03-02T17:55:45.091Z,79.25
2024-03-02T17:58:11.856Z,78.78
2024-03-02T18:00:38.703Z,80.48
2024-03-02T18:03:08.784Z,80.03
2024-03-02T18:05:38.269Z,80.67
2024-03-02T18:08:05.371Z,80.80
2024-03-02T18:10:32.878Z,81.37
2024-03-02T18:12:59.741Z,81.33
2024-03-02T18:15:27.142Z,80.79
2024-03-02T18:17:53.845Z,81.05
2024-03-02T18:20:20.518Z,81.14
2024-03-02T18:22:47.090Z,81.28
2024-03-02T18:25:13.759Z,81.27
2024-03-02T18:27:40.472Z,82.34
2024-03-02T18:30:11.918Z,82.18
2024-03-02T18:32:39.621Z,82.76
2024-03-02T18:35:09.463Z,82.31
2024-03-02T18:37:37.868Z,82.42
2024-03-02T18:40:07.927Z,82.52
2024-03-02T18:42:34.868Z,83.10
2024-03-02T18:45:06.091Z,82.90
2024-03-02T18:47:35.985Z,83.18
2024-03-02T18:50:05.944Z,83.68
2024-03-02T18:52:36.062Z,84.05
2024-03-02T18:55:03.985Z,84.01
2024-03-02T18:57:34.195Z,84.98
2024-03-02T19:00:00.837Z,84.94
2024-03-02T19:02:29.525Z,85.94
2024-03-02T19:04:56.335Z,86.28
2024-03-02T19:07:23.722Z,87.33
2024-03-02T19:09:50.389Z,87.42
2024-03-02T19:12:16.902Z,87.70
2024-03-02T19:14:43.643Z,87.57
2024-03-02T19:17:10.178Z,87.82
2024-03-02T19:19:38.308Z,87.29
2024-03-02T19:22:10.911Z,86.91
2024-03-02T19:24:41.070Z,86.74
2024-03-02T19:27:07.732Z,86.33
2024-03-02T19:29:34.475Z,87.38
2024-03-02T19:32:05.374Z,87.18
2024-03-02T19:34:34.993Z,86.08
2024-03-02T19:37:01.723Z,85.57
2024-03-02T19:39:29.474Z,84.99
2024-03-02T19:41:56.606Z,85.58
2024-03-02T19:44:30.869Z,85.46
2024-03-02T19:46:57.873Z,85.64
2024-03-02T19:49:25.471Z,86.06
2024-03-02T19:51:52.422Z,86.60
2024-03-02T19:54:19.069Z,85.64
2024-03-02T19:56:47.253Z,86.50
2024-03-02T19:59:14.936Z,86.41
2024-03-02T20:01:42.706Z,87.60
2024-03-02T20:04:10.896Z,87.42
2024-03-02T20:06:37.758Z,88.58
2024-03-02T20:09:04.445Z,87.59
2024-03-02T20:11:34.871Z,87.13
2024-03-02T20:14:01.790Z,87.48
2024-03-02T20:16:28.418Z,87.87
2024-03-02T20:18:55.131Z,87.62
2024-03-02T20:21:21.907Z,87.29
2024-03-02T20:23:49.292Z,86.55
2024-03-02T20:26:18.186Z,87.56
2024-03-02T20:28:46.890Z,88.12
2024-03-02T20:31:15.970Z,88.21
2024-03-02T20:33:43.940Z,88.79
2024-03-02T20:36:16.196Z,90.01
2024-03-02T20:38:43.772Z,90.54
2024-03-02T20:41:21.392Z,90.24
2024-03-02T20:43:49.574Z,90.90
2024-03-02T20:46:17.415Z,90.98
2024-03-02T20:48:47.910Z,91.00
2024-03-02T20:51:15.842Z,91.66
2024-03-02T20:53:43.659Z,92.56
2024-03-02T20:56:11.053Z,93.17
2024-03-02T20:58:38.822Z,94.48
2024-03-02T21:01:07.621Z,94.41
2024-03-02T21:03:39.134Z,95.17
2024-03-02T21:06:06.486Z,95.52
2024-03-02T21:08:34.136Z,96.34
2024-03-02T21:11:03.684Z,96.61
2024-03-02T21:13:34.056Z,97.17
2024-03-02T21:16:01.613Z,97.90
2024-03-02T21:18:28.971Z,97.65
2024-03-02T21:20:56.362Z,98.70
2024-03-02T21:23:23.983Z,98.56
2024-03-02T21:25:51.561Z,99.22
2024-03-02T21:28:19.091Z,99.11
2024-03-02T21:30:47.228Z,100.00
2024-03-02T21:33:14.069Z,99.70
2024-03-02T21:35:40.648Z,99.19
2024-03-02T21:38:08.418Z,99.56
2024-03-02T21:40:35.217Z,100.00
2024-03-02T21:43:02.135Z,100.00
2024-03-02T21:45:29.013Z,100.00
2024-03-02T21:47:55.599Z,100.00
2024-03-02T21:50:22.260Z,100.00
2024-03-02T21:52:50.449Z,99.42
2024-03-02T21:55:17.394Z,99.64
2024-03-02T21:57:45.560Z,99.62
2024-03-02T22:00:12.383Z,99.55
2024-03-02T22:02:42.032Z,100.00
2024-03-02T22:05:08.703Z,100.00
2024-03-02T22:07:35.466Z,100.00
2024-03-02T22:10:02.440Z,100.00
2024-03-02T22:12:29.154Z,100.00
2024-03-02T22:14:55.833Z,100.00
2024-03-02T22:17:23.744Z,100.00
2024-03-02T22:19:50.530Z,100.00
2024-03-02T22:22:17.267Z,100.00
2024-03-02T22:24:44.234Z,100.00
2024-03-02T22:27:10.818Z,100.00
2024-03-02T22:29:38.955Z,100.00
2024-03-02T22:32:06.852Z,100.00
2024-03-02T22:34:33.480Z,100.00
2024-03-02T22:37:00.141Z,100.00
2024-03-02T22:39:27.885Z,100.00
2024-03-02T22:41:56.699Z,100.00
2024-03-02T22:44:24.670Z,100.00
2024-03-02T22:46:52.918Z,100.00
2024-03-02T22:49:20.940Z,100.00
2024-03-02T22:51:48.421Z,100.00
2024-03-02T22:54:17.492Z,100.00
2024-03-02T22:56:46.662Z,100.00
2024-03-02T22:59:14.387Z,100.00
2024-03-02T23:01:42.899Z,100.00
2024-03-02T23:04:10.622Z,100.00
2024-03-02T23:06:38.128Z,100.00
2024-03-02T23:09:06.346Z,100.00
2024-03-02T23:11:33.567Z,100.00
2024-03-02T23:14:01.446Z,100.00
2024-03-02T23:16:30.344Z,100.00
2024-03-02T23:18:58.247Z,100.00
2024-03-02T23:21:26.031Z,100.00
2024-03-02T23:23:54.433Z,100.00
2024-03-02T23:26:24.439Z,100.00
2024-03-02T23:28:52.036Z,100.00
2024-03-02T23:31:20.043Z,100.00
2024-03-02T23:33:50.647Z,100.00
2024-03-02T23:36:18.354Z,100.00
2024-03-02T23:38:45.736Z,100.00
2024-03-02T23:41:14.168Z,100.00
2024-03-02T23:43:42.049Z,100.00
2024-03-02T23:46:12.906Z,100.00
2024-03-02T23:48:40.900Z,100.00
2024-03-02T23:51:08.886Z,100.00
2024-03-02T23:53:36.557Z,100.00
2024-03-02T23:56:15.196Z,100.00
2024-03-02T23:58:42.836Z,100.00
